Time;durP1;ratioP1;P1;durP2;ratioP2;P2;SDS_P1;SDS_P2;PMS_P1;PMS_P2;Temp;Humidity;BMP_temperature;BMP_pressure;BME280_temperature;BME280_humidity;BME280_pressure;Samples;Min_cycle;Max_cycle;Signal;HPM_P1;HPM_P2
2021/12/18 00:01:04;;;;;;;41.97;21.20;;;7.50;99.90;;;;;;5093068;28;20185;-63
2021/12/18 00:03:29;;;;;;;46.23;22.43;;;7.50;99.90;;;;;;5094308;28;20243;-63
2021/12/18 00:05:56;;;;;;;47.10;21.07;;;7.50;99.90;;;;;;5075492;28;20185;-63
2021/12/18 00:08:21;;;;;;;49.33;21.43;;;7.50;99.90;;;;;;5053297;28;20185;-63
2021/12/18 00:10:47;;;;;;;42.37;22.10;;;7.50;99.90;;;;;;5058928;28;20184;-63
2021/12/18 00:13:14;;;;;;;40.00;20.80;;;7.50;99.90;;;;;;5093515;28;20642;-65
2021/12/18 00:15:39;;;;;;;40.07;19.67;;;7.50;99.90;;;;;;5069417;28;20188;-63
2021/12/18 00:18:05;;;;;;;43.93;21.93;;;7.60;99.90;;;;;;5077886;28;20185;-63
2021/12/18 00:20:31;;;;;;;44.97;21.33;;;7.60;99.90;;;;;;5093435;28;20172;-63
2021/12/18 00:22:57;;;;;;;42.80;19.90;;;7.70;99.90;;;;;;5093233;28;20188;-63
2021/12/18 00:25:23;;;;;;;48.23;22.33;;;7.70;99.90;;;;;;5051344;28;20640;-63
2021/12/18 00:27:50;;;;;;;47.20;23.03;;;7.60;99.90;;;;;;5071039;28;20191;-63
2021/12/18 00:30:16;;;;;;;41.00;21.07;;;7.60;99.90;;;;;;5093212;28;20188;-63
2021/12/18 00:32:42;;;;;;;44.03;20.10;;;7.70;99.90;;;;;;5084966;28;20234;-63
2021/12/18 00:35:08;;;;;;;43.50;20.50;;;7.70;99.90;;;;;;5075353;28;20193;-62
2021/12/18 00:37:34;;;;;;;46.83;22.97;;;7.60;99.90;;;;;;5088225;28;20190;-63
2021/12/18 00:40:01;;;;;;;46.83;21.97;;;7.60;99.90;;;;;;5089391;28;20325;-63
2021/12/18 00:45:10;;;;;;;46.10;24.67;;;7.90;99.90;;;;;;5075887;28;20220;-64
2021/12/18 00:47:36;;;;;;;47.97;24.20;;;7.80;99.90;;;;;;5093776;28;20192;-63
2021/12/18 00:50:05;;;;;;;50.97;24.10;;;7.80;99.90;;;;;;5075145;28;20706;-63
2021/12/18 00:52:34;;;;;;;47.30;22.20;;;7.80;99.90;;;;;;5091840;28;20266;-63
2021/12/18 00:54:59;;;;;;;49.13;24.03;;;7.80;99.90;;;;;;5075384;28;20196;-61
2021/12/18 00:57:25;;;;;;;48.47;21.60;;;7.90;99.90;;;;;;5074857;28;20184;-61
2021/12/18 00:59:53;;;;;;;50.07;23.07;;;7.90;99.90;;;;;;5074810;28;20657;-61
2021/12/18 01:02:19;;;;;;;45.50;22.33;;;7.90;99.90;;;;;;5074953;28;20278;-61
2021/12/18 01:04:45;;;;;;;50.90;23.20;;;8.00;99.90;;;;;;5074941;28;20692;-62
2021/12/18 01:07:10;;;;;;;53.93;24.37;;;8.10;99.90;;;;;;5074670;28;20188;-62
2021/12/18 01:12:27;;;;;;;58.20;22.80;;;8.00;99.90;;;;;;5077311;28;20215;-62
2021/12/18 01:23:06;;;;;;;51.90;27.00;;;7.80;99.90;;;;;;5064433;28;20566;-62
2021/12/18 01:25:32;;;;;;;49.27;23.87;;;7.90;99.90;;;;;;5055458;28;20303;-62
2021/12/18 01:27:58;;;;;;;51.63;25.00;;;8.00;99.90;;;;;;5075193;28;20181;-62
2021/12/18 01:30:24;;;;;;;56.27;25.53;;;8.00;99.90;;;;;;5056528;28;20189;-62
2021/12/18 01:32:50;;;;;;;59.27;27.80;;;8.00;99.90;;;;;;5057329;28;20185;-62
2021/12/18 01:35:16;;;;;;;56.83;25.23;;;8.00;99.90;;;;;;5093129;28;20185;-62
2021/12/18 01:37:42;;;;;;;53.90;25.57;;;8.10;99.90;;;;;;5057127;28;20216;-62
2021/12/18 01:40:09;;;;;;;59.00;28.57;;;8.30;99.90;;;;;;5065320;28;20189;-62
2021/12/18 01:45:24;;;;;;;62.87;27.87;;;8.00;99.90;;;;;;5092495;28;20208;-63
2021/12/18 01:53:22;;;;;;;62.20;24.77;;;7.90;99.90;;;;;;5081789;28;20204;-62
2021/12/18 01:55:51;;;;;;;55.37;25.73;;;7.90;99.90;;;;;;5057712;28;20184;-62
2021/12/18 01:58:21;;;;;;;53.00;24.27;;;8.00;99.90;;;;;;5092378;28;20287;-62
2021/12/18 02:00:48;;;;;;;53.83;23.43;;;8.10;99.90;;;;;;5091987;28;20199;-62
2021/12/18 02:03:13;;;;;;;58.93;26.00;;;8.10;99.90;;;;;;5074631;28;20216;-62
2021/12/18 02:05:39;;;;;;;45.80;22.73;;;8.10;99.90;;;;;;5058829;28;20280;-63
2021/12/18 02:08:06;;;;;;;52.17;23.83;;;8.20;99.90;;;;;;5041301;28;20188;-63
2021/12/18 02:10:42;;;;;;;53.80;25.83;;;8.20;99.90;;;;;;5077059;28;20201;-62
2021/12/18 02:21:43;;;;;;;45.40;21.97;;;8.00;99.90;;;;;;5027562;28;20277;-62
2021/12/18 02:24:10;;;;;;;45.57;18.83;;;8.00;99.90;;;;;;5054962;28;20363;-62
2021/12/18 02:26:35;;;;;;;50.00;22.47;;;8.00;99.90;;;;;;5041050;28;20658;-62
2021/12/18 02:29:03;;;;;;;41.03;19.40;;;8.10;99.90;;;;;;5082227;28;20231;-62
2021/12/18 02:31:30;;;;;;;49.63;20.90;;;8.10;99.90;;;;;;5075502;28;20191;-62
2021/12/18 02:33:56;;;;;;;47.17;22.20;;;8.10;99.90;;;;;;5065846;28;20641;-62
2021/12/18 02:36:24;;;;;;;44.20;20.97;;;8.00;99.90;;;;;;5073097;28;20242;-62
2021/12/18 02:43:59;;;;;;;48.43;20.10;;;8.40;99.90;;;;;;5077101;28;20556;-62
2021/12/18 02:46:24;;;;;;;48.03;20.37;;;8.20;99.90;;;;;;5095433;28;20196;-62
2021/12/18 02:48:52;;;;;;;41.63;20.67;;;8.10;99.90;;;;;;5094973;28;20195;-62
2021/12/18 02:51:20;;;;;;;45.67;21.23;;;8.20;99.90;;;;;;5069124;28;20280;-62
2021/12/18 02:53:48;;;;;;;42.20;20.53;;;8.30;99.90;;;;;;5095485;28;20189;-62
2021/12/18 02:56:15;;;;;;;48.70;21.77;;;8.40;99.90;;;;;;5095541;28;20231;-62
2021/12/18 02:58:47;;;;;;;46.73;21.70;;;8.50;99.90;;;;;;5060704;28;20185;-62
2021/12/18 03:01:20;;;;;;;42.70;19.90;;;8.60;99.90;;;;;;5075443;28;20207;-62
2021/12/18 03:03:47;;;;;;;54.03;20.27;;;8.30;99.90;;;;;;5063093;28;20229;-62
2021/12/18 03:08:59;;;;;;;49.13;22.40;;;8.30;99.90;;;;;;5090962;28;20297;-62
2021/12/18 03:27:22;;;;;;;48.67;23.13;;;8.00;99.90;;;;;;5060584;28;20541;-62
2021/12/18 03:29:48;;;;;;;44.63;22.27;;;8.10;99.90;;;;;;5090196;28;20182;-62
2021/12/18 03:32:14;;;;;;;52.37;23.60;;;8.20;99.90;;;;;;5077272;28;20185;-62
2021/12/18 03:34:40;;;;;;;50.93;24.17;;;8.20;99.90;;;;;;5094246;28;20668;-62
2021/12/18 03:37:06;;;;;;;44.73;20.83;;;8.20;99.90;;;;;;5076384;28;20184;-62
2021/12/18 03:39:32;;;;;;;49.63;22.77;;;8.10;99.90;;;;;;5076125;28;20193;-62
2021/12/18 03:41:58;;;;;;;52.63;22.17;;;8.30;99.90;;;;;;5094678;28;20193;-62
2021/12/18 03:44:24;;;;;;;47.97;23.87;;;8.40;99.90;;;;;;5093893;28;20205;-62
2021/12/18 03:46:50;;;;;;;45.13;21.97;;;8.30;99.90;;;;;;5056998;28;20205;-62
2021/12/18 03:49:16;;;;;;;42.03;19.23;;;8.30;99.90;;;;;;5062533;28;20192;-62
2021/12/18 03:51:42;;;;;;;44.50;19.63;;;8.10;99.90;;;;;;5092140;28;20208;-62
2021/12/18 03:54:07;;;;;;;48.53;22.20;;;8.10;99.90;;;;;;5066861;28;20218;-63
2021/12/18 03:56:33;;;;;;;51.83;23.43;;;8.30;99.90;;;;;;5094088;28;20211;-62
2021/12/18 03:58:59;;;;;;;49.17;22.30;;;8.50;99.90;;;;;;5059134;28;20184;-62
2021/12/18 04:01:26;;;;;;;56.70;24.17;;;8.20;99.90;;;;;;5075989;28;20177;-63
2021/12/18 04:03:52;;;;;;;53.40;21.33;;;8.30;99.90;;;;;;5093525;28;20410;-63
2021/12/18 04:06:18;;;;;;;49.27;20.77;;;8.30;99.90;;;;;;5093588;28;20633;-63
2021/12/18 04:08:44;;;;;;;53.73;23.03;;;8.20;99.90;;;;;;5038847;28;20288;-62
2021/12/18 04:11:10;;;;;;;56.77;24.20;;;8.40;99.90;;;;;;5048318;28;20195;-63
2021/12/18 04:13:35;;;;;;;62.73;26.53;;;8.20;99.90;;;;;;5093467;28;20250;-63
2021/12/18 04:16:01;;;;;;;47.97;23.30;;;8.10;99.90;;;;;;5088531;28;20220;-63
2021/12/18 04:18:27;;;;;;;54.10;24.17;;;8.00;99.90;;;;;;5056519;28;20235;-63
2021/12/18 04:20:52;;;;;;;58.70;23.57;;;7.80;99.90;;;;;;5076399;28;20676;-65
2021/12/18 04:23:18;;;;;;;50.37;24.93;;;7.90;99.90;;;;;;5075292;28;20180;-63
2021/12/18 04:25:44;;;;;;;64.37;26.53;;;8.20;99.90;;;;;;5093798;28;20275;-63
2021/12/18 04:28:10;;;;;;;57.23;24.43;;;8.20;99.90;;;;;;5092706;28;20582;-63
2021/12/18 04:30:36;;;;;;;57.57;25.30;;;8.00;99.90;;;;;;5063359;28;20189;-62
2021/12/18 04:33:02;;;;;;;55.57;22.33;;;8.10;99.90;;;;;;5082023;28;20215;-62
2021/12/18 04:35:28;;;;;;;55.70;23.80;;;8.10;99.90;;;;;;5088491;28;20197;-63
2021/12/18 04:37:55;;;;;;;57.30;26.07;;;8.00;99.90;;;;;;5065365;28;20193;-63
2021/12/18 04:40:26;;;;;;;60.60;26.00;;;8.00;99.90;;;;;;5039443;28;20221;-63
2021/12/18 04:42:55;;;;;;;55.63;23.27;;;8.10;99.90;;;;;;5062552;28;20564;-64
2021/12/18 04:45:22;;;;;;;63.87;25.73;;;8.30;99.90;;;;;;5058418;28;20217;-63
2021/12/18 04:47:47;;;;;;;63.83;24.40;;;8.20;99.90;;;;;;5054423;28;20185;-63
2021/12/18 04:50:13;;;;;;;58.43;24.60;;;8.30;99.90;;;;;;5086193;28;20188;-63
2021/12/18 04:52:39;;;;;;;51.07;23.53;;;8.40;99.90;;;;;;5093220;28;20533;-63
2021/12/18 04:55:06;;;;;;;47.40;20.43;;;8.40;99.90;;;;;;5093118;28;20200;-63
2021/12/18 04:57:32;;;;;;;54.90;24.57;;;8.40;99.90;;;;;;5058099;28;20637;-63
2021/12/18 04:59:57;;;;;;;49.13;21.53;;;8.40;99.90;;;;;;5093067;28;20219;-63
2021/12/18 05:02:33;;;;;;;49.47;22.80;;;8.30;99.90;;;;;;5092997;28;20184;-63
2021/12/18 05:04:59;;;;;;;54.73;22.10;;;8.40;99.90;;;;;;5084396;28;20216;-62
2021/12/18 05:07:26;;;;;;;63.07;23.30;;;8.50;99.90;;;;;;5074572;28;20413;-63
2021/12/18 05:09:52;;;;;;;49.80;21.97;;;8.50;99.90;;;;;;5074807;28;20594;-63
2021/12/18 05:12:18;;;;;;;60.53;24.03;;;8.50;99.90;;;;;;5080764;28;20194;-63
2021/12/18 05:14:43;;;;;;;57.30;24.47;;;8.40;99.90;;;;;;5075485;28;20237;-62
2021/12/18 05:17:09;;;;;;;59.30;23.30;;;8.40;99.90;;;;;;5057570;28;20584;-63
2021/12/18 05:19:35;;;;;;;52.97;22.80;;;8.30;99.90;;;;;;5049473;28;20189;-63
2021/12/18 05:22:02;;;;;;;56.23;24.83;;;8.20;99.90;;;;;;5074774;28;20192;-63
2021/12/18 05:24:27;;;;;;;54.37;21.90;;;8.10;99.90;;;;;;5092686;28;20212;-62
2021/12/18 05:26:53;;;;;;;67.60;25.93;;;8.30;99.90;;;;;;5055004;28;20192;-63
2021/12/18 05:29:19;;;;;;;63.17;25.53;;;8.20;99.90;;;;;;5075142;28;20211;-62
2021/12/18 05:31:48;;;;;;;55.87;22.67;;;8.40;99.90;;;;;;5087368;28;20189;-63
2021/12/18 05:34:21;;;;;;;55.23;24.53;;;8.60;99.90;;;;;;5064121;28;20279;-63
2021/12/18 05:39:27;;;;;;;57.13;25.13;;;8.30;99.90;;;;;;5094190;28;20667;-62
2021/12/18 05:41:54;;;;;;;58.93;24.37;;;8.40;99.90;;;;;;5095868;28;20220;-63
2021/12/18 05:44:23;;;;;;;62.30;25.13;;;8.50;99.90;;;;;;5096547;28;20208;-61
2021/12/18 05:46:49;;;;;;;65.67;26.77;;;8.60;99.90;;;;;;5078602;28;20181;-60
2021/12/18 05:49:15;;;;;;;50.03;24.57;;;8.70;99.90;;;;;;5078301;28;20234;-63
2021/12/18 05:51:43;;;;;;;60.13;26.67;;;8.70;99.90;;;;;;5096085;28;20660;-62
2021/12/18 05:54:08;;;;;;;59.70;24.93;;;8.50;99.90;;;;;;5096431;28;20214;-62
2021/12/18 05:56:34;;;;;;;65.67;24.70;;;8.60;99.90;;;;;;5078476;28;20267;-61
2021/12/18 05:59:00;;;;;;;70.37;28.93;;;8.60;99.90;;;;;;5096349;28;20557;-61
2021/12/18 06:01:27;;;;;;;58.20;23.53;;;8.50;99.90;;;;;;5077697;28;20414;-61
2021/12/18 06:03:53;;;;;;;62.20;24.17;;;8.20;99.90;;;;;;5061697;28;20216;-61
2021/12/18 06:06:21;;;;;;;64.63;24.47;;;8.00;99.90;;;;;;5078026;28;20191;-61
2021/12/18 06:08:47;;;;;;;64.87;24.13;;;8.20;99.90;;;;;;5078172;28;20599;-60
2021/12/18 06:11:15;;;;;;;61.10;24.30;;;8.40;99.90;;;;;;5077913;28;20180;-61
2021/12/18 06:13:42;;;;;;;58.33;22.63;;;8.40;99.90;;;;;;5096094;28;20185;-61
2021/12/18 06:16:08;;;;;;;61.47;24.63;;;8.40;99.90;;;;;;5095853;28;20181;-60
2021/12/18 06:18:36;;;;;;;53.37;20.83;;;8.30;99.90;;;;;;5091174;28;20251;-60
2021/12/18 06:21:03;;;;;;;57.83;23.30;;;8.40;99.90;;;;;;5076963;28;20576;-60
2021/12/18 06:23:29;;;;;;;54.70;21.07;;;8.60;99.90;;;;;;5087675;28;20193;-61
2021/12/18 06:25:55;;;;;;;59.97;23.73;;;8.50;99.90;;;;;;5081624;28;20261;-60
2021/12/18 06:28:21;;;;;;;62.57;23.77;;;8.30;99.90;;;;;;5062408;28;20178;-60
2021/12/18 06:30:48;;;;;;;53.03;23.43;;;8.40;99.90;;;;;;5089089;28;20238;-61
2021/12/18 06:33:15;;;;;;;63.17;24.23;;;8.40;99.90;;;;;;5086870;28;20271;-61
2021/12/18 06:35:40;;;;;;;60.97;24.20;;;8.50;99.90;;;;;;5065814;28;20185;-61
2021/12/18 06:38:06;;;;;;;66.13;27.93;;;8.50;99.90;;;;;;5093939;28;20218;-61
2021/12/18 06:40:32;;;;;;;63.77;25.63;;;8.40;99.90;;;;;;5077531;28;20557;-61
2021/12/18 06:42:58;;;;;;;59.83;22.73;;;8.10;99.90;;;;;;5059882;28;20185;-61
2021/12/18 06:45:24;;;;;;;62.23;21.87;;;8.20;99.90;;;;;;5074949;28;20664;-60
2021/12/18 06:47:49;;;;;;;66.80;23.77;;;8.40;99.90;;;;;;5077476;28;20675;-61
2021/12/18 06:50:15;;;;;;;62.77;22.57;;;8.30;99.90;;;;;;5094655;28;20177;-61
2021/12/18 06:52:41;;;;;;;56.20;20.30;;;8.10;99.90;;;;;;5095063;28;20271;-60
2021/12/18 06:55:08;;;;;;;44.50;18.53;;;8.10;99.90;;;;;;5076827;28;20279;-61
2021/12/18 06:57:34;;;;;;;56.57;18.90;;;8.20;99.90;;;;;;5085371;28;20645;-61
2021/12/18 07:00:00;;;;;;;48.20;20.73;;;8.20;99.90;;;;;;5058107;28;20270;-61
2021/12/18 07:02:28;;;;;;;49.87;19.90;;;8.20;99.90;;;;;;5073296;28;20548;-61
2021/12/18 07:04:54;;;;;;;54.37;19.60;;;8.30;99.90;;;;;;5056708;28;20221;-61
2021/12/18 07:07:19;;;;;;;49.87;18.33;;;8.20;99.90;;;;;;5071285;28;20330;-61
2021/12/18 07:09:45;;;;;;;65.60;22.07;;;8.10;99.90;;;;;;5071143;28;20192;-62
2021/12/18 07:12:11;;;;;;;55.23;19.67;;;8.00;99.90;;;;;;5086868;28;20194;-63
2021/12/18 07:14:37;;;;;;;58.13;23.23;;;7.90;99.90;;;;;;5052820;28;20193;-63
2021/12/18 07:17:04;;;;;;;54.50;20.73;;;7.80;99.90;;;;;;5075099;28;20185;-62
2021/12/18 07:19:30;;;;;;;56.30;23.73;;;7.80;99.90;;;;;;5057475;28;20284;-62
2021/12/18 07:21:55;;;;;;;58.97;20.80;;;7.80;99.90;;;;;;5091724;28;20685;-62
2021/12/18 07:24:21;;;;;;;59.33;21.27;;;7.90;99.90;;;;;;5047268;28;20677;-65
2021/12/18 07:26:47;;;;;;;58.03;20.20;;;7.90;99.90;;;;;;5093938;28;20263;-63
2021/12/18 07:29:13;;;;;;;62.70;23.60;;;8.10;99.90;;;;;;5093295;28;20195;-64
2021/12/18 07:31:39;;;;;;;58.97;21.60;;;8.30;99.90;;;;;;5076495;28;20188;-62
2021/12/18 07:34:05;;;;;;;56.70;20.93;;;8.40;99.90;;;;;;5059912;28;20278;-64
2021/12/18 07:36:31;;;;;;;63.17;23.83;;;8.40;99.90;;;;;;5076451;28;20257;-64
2021/12/18 07:38:56;;;;;;;60.80;21.27;;;8.50;99.90;;;;;;5077041;28;20635;-64
2021/12/18 07:41:22;;;;;;;48.77;19.63;;;8.20;99.90;;;;;;5086356;28;20223;-64
2021/12/18 07:43:48;;;;;;;57.73;20.90;;;8.20;99.90;;;;;;5094002;28;20644;-65
2021/12/18 07:46:14;;;;;;;53.57;21.97;;;8.50;99.90;;;;;;5073802;28;20313;-64
2021/12/18 07:48:40;;;;;;;63.17;21.87;;;8.50;99.90;;;;;;5074763;28;20185;-63
2021/12/18 07:51:05;;;;;;;57.40;19.10;;;8.50;99.90;;;;;;5075409;28;20186;-63
2021/12/18 07:53:31;;;;;;;60.93;21.63;;;8.60;99.90;;;;;;5055323;28;20698;-64
2021/12/18 07:55:57;;;;;;;53.77;20.80;;;8.70;99.90;;;;;;5085492;28;20231;-63
2021/12/18 07:58:22;;;;;;;60.00;21.13;;;8.60;99.90;;;;;;5074553;28;20673;-64
2021/12/18 08:00:48;;;;;;;59.50;21.50;;;8.50;99.90;;;;;;5075510;28;20187;-64
2021/12/18 08:03:14;;;;;;;60.60;21.33;;;8.40;99.90;;;;;;5092988;28;20640;-65
2021/12/18 08:05:40;;;;;;;53.47;19.23;;;8.30;99.90;;;;;;5075173;28;20216;-64
2021/12/18 08:08:05;;;;;;;58.70;22.57;;;8.50;99.90;;;;;;5093486;28;20188;-64
2021/12/18 08:10:31;;;;;;;65.67;21.17;;;8.60;99.90;;;;;;5059000;28;20207;-64
2021/12/18 08:12:57;;;;;;;53.97;20.63;;;8.60;99.90;;;;;;5055487;28;20217;-63
2021/12/18 08:15:22;;;;;;;67.50;25.10;;;8.50;99.90;;;;;;5082353;28;20197;-63
2021/12/18 08:17:48;;;;;;;65.47;20.53;;;8.20;99.90;;;;;;5075837;28;20189;-63
2021/12/18 08:20:14;;;;;;;67.07;22.00;;;8.20;99.90;;;;;;5075626;28;20272;-62
2021/12/18 08:22:39;;;;;;;47.80;19.70;;;8.50;99.90;;;;;;5074995;28;20597;-63
2021/12/18 08:25:06;;;;;;;59.87;21.50;;;8.40;99.90;;;;;;5074876;28;20209;-62
2021/12/18 08:27:35;;;;;;;56.47;24.07;;;8.40;99.90;;;;;;5056458;28;20197;-63
2021/12/18 08:30:01;;;;;;;61.80;20.63;;;8.20;99.90;;;;;;5072692;28;20189;-63
2021/12/18 08:32:27;;;;;;;53.57;19.73;;;8.30;99.90;;;;;;5059889;28;20280;-65
2021/12/18 08:34:53;;;;;;;58.53;21.83;;;8.40;99.90;;;;;;5071317;28;20283;-64
2021/12/18 08:37:22;;;;;;;55.13;20.87;;;8.40;99.90;;;;;;5093362;28;20211;-64
2021/12/18 08:39:48;;;;;;;59.63;21.53;;;8.60;99.90;;;;;;5075169;28;20193;-64
2021/12/18 08:42:14;;;;;;;59.53;20.73;;;8.60;99.90;;;;;;5093610;28;20189;-63
2021/12/18 08:44:40;;;;;;;55.87;22.07;;;8.60;99.90;;;;;;5075127;28;20687;-62
2021/12/18 08:47:06;;;;;;;53.23;17.80;;;8.60;99.90;;;;;;5075283;28;20318;-63
2021/12/18 08:49:32;;;;;;;50.77;16.73;;;8.60;99.90;;;;;;5093381;28;20192;-64
2021/12/18 08:51:58;;;;;;;55.23;17.83;;;8.50;99.90;;;;;;5066386;28;20190;-63
2021/12/18 08:54:25;;;;;;;51.90;17.87;;;8.70;99.90;;;;;;5077248;28;20661;-64
2021/12/18 08:56:51;;;;;;;46.80;17.20;;;8.60;99.90;;;;;;5067314;28;20608;-65
2021/12/18 08:59:17;;;;;;;43.60;16.03;;;8.60;99.90;;;;;;5075413;28;20280;-63
2021/12/18 09:01:43;;;;;;;40.13;15.93;;;8.70;99.90;;;;;;5074239;28;20255;-64
2021/12/18 09:04:08;;;;;;;57.93;18.97;;;8.60;99.90;;;;;;5040717;28;20692;-62
2021/12/18 09:06:34;;;;;;;55.60;18.07;;;8.60;99.90;;;;;;5089198;28;20189;-63
2021/12/18 09:09:00;;;;;;;47.70;17.17;;;8.50;99.90;;;;;;5071629;28;20712;-62
2021/12/18 09:11:26;;;;;;;48.03;17.17;;;8.50;99.90;;;;;;5056323;28;20185;-63
2021/12/18 09:13:51;;;;;;;47.07;16.63;;;8.50;99.90;;;;;;5091721;28;20210;-63
2021/12/18 09:16:18;;;;;;;56.90;19.60;;;8.40;99.90;;;;;;5092098;28;20211;-63
2021/12/18 09:18:43;;;;;;;42.90;17.50;;;8.30;99.90;;;;;;5073654;28;20580;-62
2021/12/18 09:21:09;;;;;;;39.70;17.07;;;8.30;99.90;;;;;;5090338;28;20180;-62
2021/12/18 09:23:35;;;;;;;45.27;17.60;;;8.50;99.90;;;;;;5077180;28;20200;-63
2021/12/18 09:26:00;;;;;;;43.97;15.90;;;8.50;99.90;;;;;;5076138;28;20182;-63
2021/12/18 09:28:26;;;;;;;47.17;16.73;;;8.50;99.90;;;;;;5059108;28;20646;-63
2021/12/18 09:30:52;;;;;;;44.23;15.13;;;8.40;99.90;;;;;;5067230;28;20242;-64
2021/12/18 09:33:18;;;;;;;51.63;19.53;;;8.50;99.90;;;;;;5090841;28;20184;-62
2021/12/18 09:35:45;;;;;;;47.27;20.43;;;8.90;99.90;;;;;;5069240;28;20941;-66
2021/12/18 09:38:11;;;;;;;50.80;22.33;;;9.00;99.90;;;;;;5068845;28;20622;-62
2021/12/18 09:40:38;;;;;;;51.67;25.47;;;9.30;99.90;;;;;;5082009;28;20246;-65
2021/12/18 09:43:04;;;;;;;48.17;16.83;;;9.40;99.90;;;;;;5063770;28;20546;-62
2021/12/18 09:45:30;;;;;;;54.83;18.90;;;9.20;99.90;;;;;;5065502;28;20236;-66
2021/12/18 09:47:56;;;;;;;55.73;21.63;;;8.80;99.90;;;;;;5067567;28;20559;-64
2021/12/18 09:50:26;;;;;;;51.87;16.53;;;9.00;99.90;;;;;;5091089;28;20185;-64
2021/12/18 09:52:53;;;;;;;48.90;16.60;;;8.90;99.90;;;;;;5082750;28;20181;-65
2021/12/18 09:55:19;;;;;;;46.33;15.33;;;8.80;99.90;;;;;;5072170;28;20188;-66
2021/12/18 09:57:46;;;;;;;49.43;14.63;;;8.50;99.90;;;;;;5071351;28;20205;-65
2021/12/18 10:00:15;;;;;;;42.87;15.00;;;8.40;99.90;;;;;;5088206;28;20181;-64
2021/12/18 10:02:41;;;;;;;47.17;15.87;;;8.30;99.90;;;;;;5078005;28;20177;-65
2021/12/18 10:05:17;;;;;;;39.10;14.20;;;8.30;99.90;;;;;;5058376;28;20268;-64
2021/12/18 10:07:43;;;;;;;42.23;13.57;;;8.30;99.90;;;;;;5070207;28;20276;-65
2021/12/18 10:10:10;;;;;;;40.20;15.47;;;8.30;99.90;;;;;;5057740;28;20600;-65
2021/12/18 10:12:37;;;;;;;39.73;15.33;;;8.30;99.90;;;;;;5056703;28;20276;-64
2021/12/18 10:15:14;;;;;;;46.80;15.10;;;8.30;99.90;;;;;;5087980;28;20185;-65
2021/12/18 10:17:42;;;;;;;39.73;14.93;;;8.20;99.90;;;;;;5084049;28;20241;-65
2021/12/18 10:20:10;;;;;;;40.43;15.67;;;8.40;99.90;;;;;;5077184;28;20185;-65
2021/12/18 10:22:51;;;;;;;54.03;16.67;;;8.60;99.90;;;;;;5064311;28;20188;-66
2021/12/18 10:25:40;;;;;;;47.77;16.33;;;8.60;99.90;;;;;;5092327;28;20710;-65
2021/12/18 10:28:19;;;;;;;42.93;13.50;;;8.40;99.90;;;;;;5082591;28;20226;-65
2021/12/18 10:30:54;;;;;;;38.60;15.73;;;8.30;99.90;;;;;;5077095;28;20195;-65
2021/12/18 10:33:27;;;;;;;44.70;16.07;;;8.50;99.90;;;;;;5095807;28;20613;-66
2021/12/18 10:35:55;;;;;;;42.73;14.97;;;8.60;99.90;;;;;;5059795;28;20194;-65
2021/12/18 10:38:39;;;;;;;35.07;14.60;;;8.60;99.90;;;;;;5079447;28;20272;-65
2021/12/18 10:41:28;;;;;;;41.37;15.87;;;8.60;99.90;;;;;;5095211;28;20256;-65
2021/12/18 10:44:02;;;;;;;35.30;13.50;;;8.70;99.90;;;;;;5092568;28;20246;-65
2021/12/18 10:46:29;;;;;;;35.27;13.90;;;8.80;99.90;;;;;;5081167;28;20189;-64
2021/12/18 10:49:00;;;;;;;38.03;13.17;;;8.80;99.90;;;;;;5084812;28;20702;-66
2021/12/18 10:51:29;;;;;;;35.33;12.57;;;8.70;99.90;;;;;;5077031;28;20233;-64
2021/12/18 10:54:07;;;;;;;35.83;13.10;;;8.50;99.90;;;;;;5076910;28;20423;-65
2021/12/18 10:56:45;;;;;;;38.57;14.20;;;8.50;99.90;;;;;;5076761;28;20192;-64
2021/12/18 10:59:24;;;;;;;43.13;17.60;;;8.50;99.90;;;;;;5081356;28;20216;-64
2021/12/18 11:01:56;;;;;;;41.47;14.37;;;8.60;99.90;;;;;;5065414;28;20172;-64
2021/12/18 11:04:30;;;;;;;33.63;11.87;;;8.50;99.90;;;;;;5085428;28;20262;-65
2021/12/18 11:06:57;;;;;;;39.23;15.33;;;8.40;99.90;;;;;;5087822;28;20658;-64
2021/12/18 11:09:32;;;;;;;35.33;13.33;;;8.40;99.90;;;;;;5086019;28;20208;-65
2021/12/18 11:14:42;;;;;;;43.23;14.13;;;8.20;99.90;;;;;;5073707;28;20193;-65
2021/12/18 11:17:14;;;;;;;44.87;14.67;;;8.20;99.90;;;;;;5076361;28;20268;-65
2021/12/18 11:19:41;;;;;;;42.33;15.83;;;8.30;99.90;;;;;;5077583;28;20650;-64
2021/12/18 11:22:10;;;;;;;42.53;16.13;;;8.60;99.90;;;;;;5072096;28;20547;-64
2021/12/18 11:24:40;;;;;;;37.23;14.47;;;8.40;99.90;;;;;;5076572;28;20572;-64
2021/12/18 11:27:11;;;;;;;42.67;13.60;;;8.50;99.90;;;;;;5068275;28;20185;-64
2021/12/18 11:29:44;;;;;;;38.53;14.93;;;8.60;99.90;;;;;;5087373;28;20192;-65
2021/12/18 11:32:16;;;;;;;36.87;14.90;;;8.70;99.90;;;;;;5076026;28;20188;-64
2021/12/18 11:34:46;;;;;;;39.93;15.27;;;8.70;99.90;;;;;;5074809;28;20621;-64
2021/12/18 11:37:16;;;;;;;44.53;14.47;;;8.70;99.90;;;;;;5058054;28;20192;-65
2021/12/18 11:39:44;;;;;;;40.13;14.83;;;9.00;99.90;;;;;;5094504;28;20185;-65
2021/12/18 11:42:11;;;;;;;38.43;14.10;;;8.90;99.90;;;;;;5094360;28;20188;-64
2021/12/18 11:45:06;;;;;;;45.83;15.30;;;9.10;99.90;;;;;;5043424;28;20267;-64
2021/12/18 11:47:32;;;;;;;44.40;14.57;;;8.90;99.90;;;;;;5076841;28;20203;-64
2021/12/18 11:50:18;;;;;;;46.23;14.63;;;8.80;99.90;;;;;;5077101;28;20519;-65
2021/12/18 11:53:04;;;;;;;50.30;14.20;;;8.70;99.90;;;;;;5089928;28;20187;-65
2021/12/18 11:55:49;;;;;;;41.40;12.63;;;8.60;99.90;;;;;;5075422;28;20208;-64
2021/12/18 11:58:33;;;;;;;36.50;13.23;;;8.60;99.90;;;;;;5094147;28;20184;-65
2021/12/18 12:01:15;;;;;;;39.53;12.87;;;8.50;99.90;;;;;;5058770;28;20665;-64
2021/12/18 12:03:50;;;;;;;35.47;14.03;;;8.40;99.90;;;;;;5093944;28;20198;-64
2021/12/18 12:06:37;;;;;;;40.87;15.30;;;8.40;99.90;;;;;;5075376;28;20187;-65
2021/12/18 12:09:32;;;;;;;39.13;13.43;;;8.40;99.90;;;;;;5093452;28;20204;-64
2021/12/18 12:12:04;;;;;;;44.17;17.53;;;8.50;99.90;;;;;;5076887;28;20189;-63
2021/12/18 12:14:33;;;;;;;41.57;12.30;;;8.70;99.90;;;;;;5074697;28;20176;-64
2021/12/18 12:17:15;;;;;;;40.23;15.57;;;8.70;99.90;;;;;;5075821;28;20210;-64
2021/12/18 12:19:50;;;;;;;34.57;14.47;;;8.70;99.90;;;;;;5093584;28;20632;-64
2021/12/18 12:22:48;;;;;;;44.90;11.67;;;8.90;99.90;;;;;;5075355;28;20184;-64
2021/12/18 12:25:31;;;;;;;32.97;12.57;;;8.80;99.90;;;;;;5063265;28;20321;-65
2021/12/18 12:28:11;;;;;;;33.60;12.90;;;8.90;99.90;;;;;;5089272;28;20200;-64
2021/12/18 12:30:45;;;;;;;35.20;13.37;;;9.10;99.90;;;;;;5087413;28;20176;-64
2021/12/18 12:33:19;;;;;;;33.73;11.67;;;9.00;99.90;;;;;;5085736;28;20208;-64
2021/12/18 12:36:00;;;;;;;36.10;11.23;;;8.80;99.90;;;;;;5058968;28;20249;-65
2021/12/18 12:38:30;;;;;;;41.47;11.57;;;8.80;99.90;;;;;;5093411;28;20653;-64
2021/12/18 12:40:57;;;;;;;28.30;12.13;;;8.90;99.90;;;;;;5075286;28;20181;-66
2021/12/18 12:43:28;;;;;;;25.40;11.43;;;8.80;99.90;;;;;;5055552;28;20181;-64
2021/12/18 12:45:59;;;;;;;21.43;9.07;;;8.60;99.90;;;;;;5073810;28;20296;-64
2021/12/18 12:48:44;;;;;;;24.43;9.57;;;8.40;99.90;;;;;;5078181;28;20185;-64
2021/12/18 12:51:10;;;;;;;27.87;9.70;;;8.40;99.90;;;;;;5093074;28;20181;-64
2021/12/18 12:53:50;;;;;;;21.50;10.00;;;8.30;99.90;;;;;;5071800;28;20244;-64
2021/12/18 12:56:18;;;;;;;29.17;12.10;;;8.40;99.90;;;;;;5055946;28;20649;-64
2021/12/18 12:58:45;;;;;;;34.03;11.80;;;8.40;99.90;;;;;;5073913;28;20181;-65
2021/12/18 13:01:11;;;;;;;23.67;11.23;;;8.30;99.90;;;;;;5075337;28;20185;-63
2021/12/18 13:03:48;;;;;;;28.60;10.77;;;8.30;99.90;;;;;;5070302;28;20176;-64
2021/12/18 13:06:22;;;;;;;24.43;11.77;;;8.40;99.90;;;;;;5091532;28;20215;-64
2021/12/18 13:08:50;;;;;;;31.30;12.13;;;8.40;99.90;;;;;;5088614;28;20506;-67
2021/12/18 13:11:20;;;;;;;26.43;10.07;;;8.60;99.90;;;;;;5073514;28;20192;-65
2021/12/18 13:13:47;;;;;;;24.93;9.87;;;8.40;99.90;;;;;;5086745;28;20179;-64
2021/12/18 13:16:16;;;;;;;23.27;8.70;;;8.20;99.90;;;;;;5069637;28;20193;-65
2021/12/18 13:18:41;;;;;;;21.97;9.77;;;8.20;99.90;;;;;;5083064;28;20227;-65
2021/12/18 13:21:23;;;;;;;28.07;9.17;;;8.30;99.90;;;;;;5090477;28;20189;-64
2021/12/18 13:23:59;;;;;;;22.33;9.93;;;8.50;99.90;;;;;;5091084;28;20168;-64
2021/12/18 13:26:44;;;;;;;23.00;9.83;;;8.30;99.90;;;;;;5072989;28;20278;-64
2021/12/18 13:29:24;;;;;;;27.90;9.27;;;8.10;99.90;;;;;;5087335;28;20248;-64
2021/12/18 13:31:54;;;;;;;21.70;8.03;;;8.30;99.90;;;;;;5070311;28;20545;-65
2021/12/18 13:34:26;;;;;;;23.33;8.03;;;8.30;99.90;;;;;;5065461;28;20645;-64
2021/12/18 13:36:55;;;;;;;17.30;7.77;;;8.30;99.90;;;;;;5082822;28;20287;-65
2021/12/18 13:39:27;;;;;;;19.90;6.77;;;8.20;99.90;;;;;;5079500;28;20185;-64
2021/12/18 13:42:09;;;;;;;24.73;9.67;;;8.20;99.90;;;;;;5075137;28;20650;-64
2021/12/18 13:44:57;;;;;;;18.70;9.57;;;8.30;99.90;;;;;;5068211;28;20311;-65